Time;durP1;ratioP1;P1;durP2;ratioP2;P2;SDS_P1;SDS_P2;PMS_P1;PMS_P2;Temp;Humidity;BMP_temperature;BMP_pressure;BME280_temperature;BME280_humidity;BME280_pressure;Samples;Min_cycle;Max_cycle;Signal;HPM_P1;HPM_P2
2023/06/28 00:00:36;;;;;;;0.00;0.00;;;17.00;76.70;;;;;;5029123;28;20595;-69
2023/06/28 00:03:02;;;;;;;0.00;0.00;;;17.00;76.70;;;;;;5029338;28;20034;-68
2023/06/28 00:05:28;;;;;;;0.00;0.00;;;17.00;77.00;;;;;;5029200;28;20072;-69
2023/06/28 00:07:53;;;;;;;0.00;0.00;;;17.10;76.80;;;;;;5028699;28;20552;-69
2023/06/28 00:10:19;;;;;;;0.00;0.00;;;17.10;77.40;;;;;;5027969;28;20038;-69
2023/06/28 00:12:44;;;;;;;0.00;0.00;;;17.10;77.00;;;;;;5028868;28;20041;-69
2023/06/28 00:15:10;;;;;;;0.00;0.00;;;17.10;76.70;;;;;;5029120;28;20099;-69
2023/06/28 00:17:36;;;;;;;0.00;0.00;;;17.10;76.50;;;;;;5018096;28;20088;-69
2023/06/28 00:20:07;;;;;;;0.00;0.00;;;17.10;76.50;;;;;;5028123;28;20453;-69
2023/06/28 00:22:33;;;;;;;0.00;0.00;;;17.10;76.40;;;;;;5027427;28;20041;-69
2023/06/28 00:25:00;;;;;;;0.00;0.00;;;17.10;76.50;;;;;;5028211;28;20095;-68
2023/06/28 00:27:27;;;;;;;0.00;0.00;;;17.10;76.30;;;;;;5009089;28;20038;-68
2023/06/28 00:29:53;;;;;;;0.00;0.00;;;17.10;76.20;;;;;;5015919;28;20033;-68
2023/06/28 00:32:19;;;;;;;0.17;0.17;;;17.20;76.20;;;;;;5028239;28;20045;-69
2023/06/28 00:34:45;;;;;;;0.00;0.00;;;17.20;76.10;;;;;;5028789;28;20037;-68
2023/06/28 00:37:10;;;;;;;0.00;0.00;;;17.20;76.00;;;;;;5028387;28;20053;-69
2023/06/28 00:39:36;;;;;;;0.00;0.00;;;17.20;76.50;;;;;;5022244;28;20049;-69
2023/06/28 00:42:02;;;;;;;0.00;0.00;;;17.20;76.50;;;;;;5022830;28;20052;-69
2023/06/28 00:44:27;;;;;;;0.00;0.00;;;17.10;76.50;;;;;;5028247;28;20045;-69
2023/06/28 00:46:54;;;;;;;14.82;1.00;;;17.10;77.30;;;;;;5028659;28;20052;-69
2023/06/28 00:49:22;;;;;;;0.00;0.00;;;17.00;77.10;;;;;;5021828;28;20038;-69
2023/06/28 00:51:48;;;;;;;0.00;0.00;;;17.00;77.30;;;;;;5008960;28;20052;-69
2023/06/28 00:54:13;;;;;;;0.00;0.00;;;17.00;77.50;;;;;;5008917;28;20045;-68
2023/06/28 00:56:39;;;;;;;0.00;0.00;;;17.00;77.00;;;;;;5013233;28;20064;-69
2023/06/28 00:59:05;;;;;;;0.00;0.00;;;17.00;77.00;;;;;;5028172;28;20042;-69
2023/06/28 01:01:30;;;;;;;0.00;0.00;;;17.10;76.80;;;;;;5012826;28;20053;-68
2023/06/28 01:03:57;;;;;;;0.00;0.00;;;17.10;76.60;;;;;;5028961;28;20041;-69
2023/06/28 01:06:25;;;;;;;0.00;0.00;;;17.10;76.60;;;;;;5011502;28;20062;-69
2023/06/28 01:08:51;;;;;;;0.00;0.00;;;17.10;76.70;;;;;;5019177;28;20049;-68
2023/06/28 01:11:18;;;;;;;0.00;0.00;;;17.10;76.40;;;;;;5024705;28;20046;-69
2023/06/28 01:13:45;;;;;;;0.00;0.00;;;17.10;76.50;;;;;;5032966;28;20050;-68
2023/06/28 01:16:10;;;;;;;0.00;0.00;;;17.10;76.40;;;;;;5033085;28;20502;-69
2023/06/28 01:18:36;;;;;;;0.00;0.00;;;17.10;76.30;;;;;;5032805;28;20080;-69
2023/06/28 01:21:07;;;;;;;0.00;0.00;;;17.10;76.00;;;;;;5030881;28;20088;-68
2023/06/28 01:23:33;;;;;;;0.00;0.00;;;17.00;75.90;;;;;;5032339;28;20034;-69
2023/06/28 01:26:02;;;;;;;0.00;0.00;;;16.90;76.20;;;;;;5031556;28;20089;-68
2023/06/28 01:28:31;;;;;;;0.00;0.00;;;17.00;76.00;;;;;;5031991;28;20045;-69
2023/06/28 01:30:57;;;;;;;0.00;0.00;;;16.90;76.10;;;;;;5031330;28;20052;-69
2023/06/28 01:33:23;;;;;;;0.00;0.00;;;16.80;75.90;;;;;;5031695;28;20053;-69
2023/06/28 01:35:50;;;;;;;0.00;0.00;;;16.70;76.10;;;;;;5032192;28;20049;-69
2023/06/28 01:38:16;;;;;;;0.00;0.00;;;16.80;76.10;;;;;;5031745;28;20042;-69
2023/06/28 01:40:43;;;;;;;0.00;0.00;;;16.80;76.20;;;;;;5030937;28;20041;-69
2023/06/28 01:43:09;;;;;;;0.00;0.00;;;16.80;76.20;;;;;;5030994;28;20494;-69
2023/06/28 01:45:36;;;;;;;0.00;0.00;;;16.70;77.10;;;;;;5026271;28;20137;-69
2023/06/28 01:48:02;;;;;;;0.00;0.00;;;16.70;76.90;;;;;;5012089;28;20038;-69
2023/06/28 01:50:29;;;;;;;0.00;0.00;;;16.60;77.20;;;;;;5011644;28;20048;-69
2023/06/28 01:53:03;;;;;;;0.00;0.00;;;16.60;77.30;;;;;;5012103;28;20050;-69
2023/06/28 01:55:29;;;;;;;0.00;0.00;;;16.60;77.30;;;;;;5011847;28;20037;-69
2023/06/28 01:57:55;;;;;;;0.00;0.00;;;16.50;77.50;;;;;;5010630;28;20042;-70
2023/06/28 02:00:21;;;;;;;0.00;0.00;;;16.50;77.80;;;;;;5023142;28;20041;-69
2023/06/28 02:02:47;;;;;;;0.00;0.00;;;16.40;78.00;;;;;;5030429;28;20473;-68
2023/06/28 02:05:12;;;;;;;0.00;0.00;;;16.30;79.00;;;;;;5031711;28;20041;-69
2023/06/28 02:07:38;;;;;;;4.75;1.45;;;16.30;78.70;;;;;;5029380;28;20707;-69
2023/06/28 02:10:04;;;;;;;0.57;0.57;;;16.30;78.70;;;;;;5021653;28;20042;-69
2023/06/28 02:12:30;;;;;;;0.00;0.00;;;16.30;79.30;;;;;;5011573;28;20050;-69
2023/06/28 02:14:55;;;;;;;0.03;0.03;;;16.20;79.20;;;;;;5011312;28;20116;-69
2023/06/28 02:17:21;;;;;;;0.00;0.00;;;16.20;79.50;;;;;;5011243;28;20068;-69
2023/06/28 02:19:48;;;;;;;0.00;0.00;;;16.20;79.70;;;;;;5011734;28;20033;-69
2023/06/28 02:22:17;;;;;;;0.00;0.00;;;16.10;80.50;;;;;;5021662;28;20057;-69
2023/06/28 02:24:43;;;;;;;0.00;0.00;;;16.10;79.90;;;;;;5030029;28;20095;-71
2023/06/28 02:27:09;;;;;;;0.00;0.00;;;16.10;79.50;;;;;;5030854;28;20029;-70
2023/06/28 02:29:35;;;;;;;0.00;0.00;;;16.20;79.70;;;;;;5030194;28;20034;-70
2023/06/28 02:32:01;;;;;;;0.00;0.00;;;16.10;79.60;;;;;;5027591;28;20494;-69
2023/06/28 02:34:27;;;;;;;0.00;0.00;;;16.20;79.40;;;;;;5020632;28;20514;-69
2023/06/28 02:36:53;;;;;;;0.00;0.00;;;16.10;79.50;;;;;;5030195;28;20066;-69
2023/06/28 02:39:18;;;;;;;0.00;0.00;;;16.20;79.60;;;;;;5018755;28;20038;-69
2023/06/28 02:41:44;;;;;;;0.00;0.00;;;16.20;79.40;;;;;;5017349;28;20053;-69
2023/06/28 02:44:10;;;;;;;0.00;0.00;;;16.20;79.60;;;;;;5025552;28;20526;-69
2023/06/28 02:46:36;;;;;;;0.00;0.00;;;16.20;79.20;;;;;;5018432;28;20050;-69
2023/06/28 02:49:01;;;;;;;0.00;0.00;;;16.20;79.10;;;;;;5028788;28;20080;-71
2023/06/28 02:51:27;;;;;;;0.00;0.00;;;16.20;79.20;;;;;;5011298;28;20545;-69
2023/06/28 02:53:53;;;;;;;0.00;0.00;;;16.30;79.10;;;;;;5028030;28;20447;-70
2023/06/28 02:56:18;;;;;;;0.00;0.00;;;16.30;79.10;;;;;;5030154;28;20053;-69
2023/06/28 02:58:44;;;;;;;0.40;0.40;;;16.30;78.80;;;;;;5027788;28;20049;-70
2023/06/28 03:01:09;;;;;;;0.00;0.00;;;16.40;78.80;;;;;;5029907;28;20136;-70
2023/06/28 03:03:38;;;;;;;0.00;0.00;;;16.50;79.50;;;;;;5030048;28;20099;-69
2023/06/28 03:06:04;;;;;;;0.00;0.00;;;16.50;79.20;;;;;;5030067;28;20049;-69
2023/06/28 03:08:30;;;;;;;0.00;0.00;;;16.50;79.50;;;;;;5029684;28;20129;-69
2023/06/28 03:10:56;;;;;;;0.00;0.00;;;16.60;79.30;;;;;;5025354;28;20132;-69
2023/06/28 03:13:21;;;;;;;0.00;0.00;;;16.60;79.20;;;;;;5028113;28;20052;-70
2023/06/28 03:15:47;;;;;;;0.00;0.00;;;16.60;78.80;;;;;;5028393;28;20055;-69
2023/06/28 03:18:13;;;;;;;0.00;0.00;;;16.60;78.90;;;;;;5027698;28;20046;-69
2023/06/28 03:20:38;;;;;;;0.00;0.00;;;16.60;78.90;;;;;;5027151;28;20136;-69
2023/06/28 03:23:04;;;;;;;0.00;0.00;;;16.60;78.70;;;;;;5014109;28;20561;-69
2023/06/28 03:25:30;;;;;;;0.00;0.00;;;16.60;78.80;;;;;;5009132;28;20065;-69
2023/06/28 03:27:56;;;;;;;0.00;0.00;;;16.60;79.00;;;;;;5027408;28;20056;-69
2023/06/28 03:30:22;;;;;;;0.00;0.00;;;16.50;78.80;;;;;;5029706;28;20407;-69
2023/06/28 03:32:48;;;;;;;0.00;0.00;;;16.50;78.90;;;;;;5029953;28;20056;-69
2023/06/28 03:35:13;;;;;;;0.00;0.00;;;16.50;78.70;;;;;;5029766;28;20496;-70
2023/06/28 03:37:39;;;;;;;0.00;0.00;;;16.50;78.60;;;;;;5029208;28;20041;-69
2023/06/28 03:40:05;;;;;;;0.00;0.00;;;16.60;78.60;;;;;;5029817;28;20068;-69
2023/06/28 03:42:31;;;;;;;0.00;0.00;;;16.50;78.70;;;;;;5029847;28;20041;-69
2023/06/28 03:44:56;;;;;;;0.00;0.00;;;16.50;78.80;;;;;;5029735;28;20061;-69
2023/06/28 03:47:22;;;;;;;0.00;0.00;;;16.50;79.30;;;;;;5029197;28;20082;-70
2023/06/28 03:49:48;;;;;;;0.00;0.00;;;16.60;79.50;;;;;;5029248;28;20560;-70
2023/06/28 03:52:13;;;;;;;0.00;0.00;;;16.60;79.60;;;;;;5029204;28;20564;-69
2023/06/28 03:54:39;;;;;;;0.00;0.00;;;16.50;79.60;;;;;;5029240;28;20079;-69
2023/06/28 03:57:06;;;;;;;0.00;0.00;;;16.50;79.70;;;;;;5029799;28;20054;-70
2023/06/28 03:59:31;;;;;;;0.00;0.00;;;16.60;79.70;;;;;;5026238;28;20128;-69
2023/06/28 04:01:57;;;;;;;0.00;0.00;;;16.60;79.90;;;;;;5026046;28;20041;-69
2023/06/28 04:04:23;;;;;;;0.00;0.00;;;16.60;79.90;;;;;;5029079;28;20045;-69
2023/06/28 04:06:48;;;;;;;0.00;0.00;;;16.60;80.40;;;;;;5028841;28;20173;-69
2023/06/28 04:09:15;;;;;;;0.40;0.40;;;16.60;80.30;;;;;;5029181;28;20322;-69
2023/06/28 04:11:41;;;;;;;0.00;0.00;;;16.60;80.00;;;;;;5028811;28;20077;-69
2023/06/28 04:14:07;;;;;;;0.00;0.00;;;16.60;80.70;;;;;;5028585;28;20462;-69
2023/06/28 04:16:32;;;;;;;0.00;0.00;;;16.60;80.70;;;;;;5028862;28;20169;-70
2023/06/28 04:18:59;;;;;;;0.00;0.00;;;16.60;80.90;;;;;;5028793;28;20049;-69
2023/06/28 04:21:26;;;;;;;0.00;0.00;;;16.60;80.90;;;;;;5021768;28;20037;-69
2023/06/28 04:23:51;;;;;;;0.00;0.00;;;16.60;81.00;;;;;;5026530;28;20045;-70
2023/06/28 04:26:18;;;;;;;0.00;0.00;;;16.60;81.20;;;;;;5028554;28;20107;-69
2023/06/28 04:28:43;;;;;;;0.00;0.00;;;16.60;80.70;;;;;;5027573;28;20418;-70
2023/06/28 04:31:09;;;;;;;0.00;0.00;;;16.50;81.40;;;;;;5027734;28;20041;-70
2023/06/28 04:33:35;;;;;;;0.00;0.00;;;16.50;81.80;;;;;;5028777;28;20048;-70
2023/06/28 04:36:01;;;;;;;0.00;0.00;;;16.50;82.30;;;;;;5027824;28;20042;-69
2023/06/28 04:38:27;;;;;;;0.03;0.03;;;16.40;82.80;;;;;;5029151;28;20041;-69
2023/06/28 04:40:55;;;;;;;0.00;0.00;;;16.40;83.10;;;;;;5028037;28;20037;-70
2023/06/28 04:43:20;;;;;;;0.00;0.00;;;16.40;82.70;;;;;;5027612;28;20124;-70
2023/06/28 04:45:48;;;;;;;0.00;0.00;;;16.40;82.80;;;;;;5027536;28;20468;-69
2023/06/28 04:48:14;;;;;;;0.00;0.00;;;16.40;82.80;;;;;;5028398;28;20072;-68
2023/06/28 04:50:40;;;;;;;0.00;0.00;;;16.40;83.30;;;;;;5023423;28;20057;-70
2023/06/28 04:53:07;;;;;;;0.00;0.00;;;16.40;83.80;;;;;;5028938;28;20063;-69
2023/06/28 04:55:34;;;;;;;0.00;0.00;;;16.40;84.10;;;;;;5028298;28;20046;-70
2023/06/28 04:58:05;;;;;;;0.00;0.00;;;16.40;84.10;;;;;;5016395;28;20064;-70
2023/06/28 05:00:31;;;;;;;0.00;0.00;;;16.40;84.10;;;;;;5028645;28;20046;-69
2023/06/28 05:02:57;;;;;;;0.00;0.00;;;16.30;84.60;;;;;;5029725;28;20045;-69
2023/06/28 05:05:24;;;;;;;0.00;0.00;;;16.30;84.00;;;;;;5028146;28;20067;-70
2023/06/28 05:07:54;;;;;;;0.00;0.00;;;16.30;84.20;;;;;;5024639;28;20409;-69
2023/06/28 05:10:23;;;;;;;0.00;0.00;;;16.30;84.20;;;;;;5029148;28;20062;-70
2023/06/28 05:12:51;;;;;;;0.00;0.00;;;16.30;84.40;;;;;;5028332;28;20046;-70
2023/06/28 05:15:20;;;;;;;0.00;0.00;;;16.30;84.20;;;;;;5028563;28;20073;-69
2023/06/28 05:17:46;;;;;;;0.00;0.00;;;16.30;85.10;;;;;;5017568;28;20559;-70
2023/06/28 05:20:11;;;;;;;0.00;0.00;;;16.30;84.30;;;;;;5021821;28;20125;-68
2023/06/28 05:22:45;;;;;;;0.00;0.00;;;16.40;84.60;;;;;;5028495;28;20052;-68
2023/06/28 05:25:11;;;;;;;0.00;0.00;;;16.40;85.00;;;;;;5028547;28;20107;-66
2023/06/28 05:27:37;;;;;;;0.00;0.00;;;16.30;84.40;;;;;;5020658;28;20499;-68
2023/06/28 05:30:04;;;;;;;0.00;0.00;;;16.40;84.70;;;;;;5028528;28;20054;-67
2023/06/28 05:32:29;;;;;;;0.00;0.00;;;16.40;85.00;;;;;;5028314;28;20133;-67
2023/06/28 05:34:55;;;;;;;0.00;0.00;;;16.30;84.50;;;;;;5027685;28;20149;-68
2023/06/28 05:37:20;;;;;;;0.00;0.00;;;16.40;84.40;;;;;;5027807;28;20030;-67
2023/06/28 05:39:47;;;;;;;0.00;0.00;;;16.40;84.80;;;;;;5026734;28;20107;-67
2023/06/28 05:42:13;;;;;;;0.00;0.00;;;16.30;84.80;;;;;;5029607;28;20057;-67
2023/06/28 05:44:38;;;;;;;0.00;0.00;;;16.40;84.70;;;;;;5017197;28;20831;-67
2023/06/28 05:47:04;;;;;;;0.00;0.00;;;16.40;84.70;;;;;;5030600;28;20045;-67
2023/06/28 05:49:31;;;;;;;0.00;0.00;;;16.50;84.40;;;;;;5027255;28;20137;-67
2023/06/28 05:51:57;;;;;;;0.00;0.00;;;16.50;84.80;;;;;;5030581;28;20490;-67
2023/06/28 05:54:23;;;;;;;0.00;0.00;;;16.50;84.70;;;;;;5029898;28;20049;-68
2023/06/28 05:56:48;;;;;;;0.00;0.00;;;16.50;84.10;;;;;;5027087;28;20049;-68
2023/06/28 05:59:14;;;;;;;0.00;0.00;;;16.60;83.70;;;;;;5030983;28;20091;-68
2023/06/28 06:01:39;;;;;;;0.00;0.00;;;16.60;84.00;;;;;;5020220;28;20387;-69
2023/06/28 06:04:05;;;;;;;0.00;0.00;;;16.60;83.60;;;;;;5031293;28;20042;-68
2023/06/28 06:06:30;;;;;;;0.00;0.00;;;16.60;83.70;;;;;;5030817;28;20053;-68
2023/06/28 06:08:56;;;;;;;0.00;0.00;;;16.70;83.60;;;;;;5030935;28;20421;-68
2023/06/28 06:11:21;;;;;;;0.00;0.00;;;16.60;83.60;;;;;;5026585;28;20465;-68
2023/06/28 06:13:47;;;;;;;0.00;0.00;;;16.60;83.60;;;;;;5031359;28;20494;-68
2023/06/28 06:16:12;;;;;;;0.10;0.10;;;16.50;83.80;;;;;;5031387;28;20072;-68
2023/06/28 06:18:40;;;;;;;0.00;0.00;;;16.60;84.10;;;;;;5030230;28;20453;-68
2023/06/28 06:21:06;;;;;;;0.00;0.00;;;16.60;84.60;;;;;;5031244;28;20046;-68
2023/06/28 06:23:32;;;;;;;0.00;0.00;;;16.60;84.50;;;;;;5030328;28;20120;-66
2023/06/28 06:25:57;;;;;;;0.00;0.00;;;16.60;84.80;;;;;;5029995;28;20549;-70
2023/06/28 06:28:23;;;;;;;0.00;0.00;;;16.80;84.20;;;;;;5022150;28;20514;-70
2023/06/28 06:30:49;;;;;;;0.00;0.00;;;16.90;84.00;;;;;;5012190;28;20128;-70
2023/06/28 06:33:14;;;;;;;0.00;0.00;;;17.00;83.50;;;;;;5022132;28;20124;-71
2023/06/28 06:35:40;;;;;;;0.00;0.00;;;17.00;83.70;;;;;;5029935;28;20045;-70
2023/06/28 06:38:05;;;;;;;0.00;0.00;;;17.00;83.90;;;;;;5030569;28;20380;-70
2023/06/28 06:40:33;;;;;;;0.00;0.00;;;17.00;84.20;;;;;;5029732;28;20048;-70
2023/06/28 06:42:59;;;;;;;0.52;0.40;;;17.00;83.90;;;;;;5029913;28;20414;-70
2023/06/28 06:45:24;;;;;;;0.00;0.00;;;17.00;84.40;;;;;;5030707;28;20048;-70
2023/06/28 06:47:50;;;;;;;0.00;0.00;;;17.00;83.90;;;;;;5029267;28;20046;-70
2023/06/28 06:50:18;;;;;;;0.00;0.00;;;16.90;83.60;;;;;;5018506;28;20038;-70
2023/06/28 06:52:44;;;;;;;0.00;0.00;;;17.00;83.60;;;;;;5028633;28;20061;-70
2023/06/28 06:55:10;;;;;;;0.00;0.00;;;16.90;84.10;;;;;;5030229;28;20044;-69
2023/06/28 06:57:35;;;;;;;0.00;0.00;;;16.90;84.40;;;;;;5030839;28;20394;-66
2023/06/28 07:00:02;;;;;;;0.00;0.00;;;17.00;84.20;;;;;;5011161;28;20175;-66
2023/06/28 07:02:28;;;;;;;0.10;0.10;;;17.10;84.00;;;;;;5029625;28;20041;-66
2023/06/28 07:04:53;;;;;;;0.00;0.00;;;17.40;83.40;;;;;;5029017;28;20053;-66
2023/06/28 07:07:19;;;;;;;0.00;0.00;;;17.60;82.40;;;;;;5030001;28;20049;-66
2023/06/28 07:09:44;;;;;;;0.00;0.00;;;17.80;81.80;;;;;;5027827;28;20613;-66
2023/06/28 07:12:10;;;;;;;0.93;0.57;;;18.00;81.40;;;;;;5029133;28;20037;-66
2023/06/28 07:14:36;;;;;;;0.00;0.00;;;18.20;80.80;;;;;;5028848;28;20098;-70
2023/06/28 07:17:01;;;;;;;0.00;0.00;;;18.30;80.40;;;;;;5028860;28;20041;-70
2023/06/28 07:19:27;;;;;;;0.00;0.00;;;18.20;80.00;;;;;;5028176;28;20045;-70
2023/06/28 07:21:52;;;;;;;0.00;0.00;;;18.10;80.60;;;;;;5029139;28;20053;-70
2023/06/28 07:24:18;;;;;;;0.00;0.00;;;17.90;81.20;;;;;;5028561;28;20048;-69
2023/06/28 07:26:43;;;;;;;0.00;0.00;;;17.70;81.40;;;;;;5021447;28;20053;-70
2023/06/28 07:29:09;;;;;;;0.00;0.00;;;17.60;81.70;;;;;;5023337;28;20033;-69
2023/06/28 07:31:34;;;;;;;0.00;0.00;;;17.50;82.00;;;;;;5029401;28;20107;-70
2023/06/28 07:34:04;;;;;;;0.00;0.00;;;17.40;82.40;;;;;;5028905;28;20051;-70
2023/06/28 07:36:31;;;;;;;0.00;0.00;;;17.30;82.70;;;;;;5026993;28;20047;-70
2023/06/28 07:38:57;;;;;;;0.00;0.00;;;17.20;83.10;;;;;;5029578;28;20076;-70
2023/06/28 07:41:23;;;;;;;0.00;0.00;;;17.20;83.40;;;;;;5027318;28;20573;-70
2023/06/28 07:43:49;;;;;;;0.00;0.00;;;17.20;83.20;;;;;;5028843;28;20045;-69
2023/06/28 07:46:15;;;;;;;0.00;0.00;;;17.10;83.90;;;;;;5027979;28;20056;-69
2023/06/28 07:48:40;;;;;;;0.00;0.00;;;17.10;83.60;;;;;;5028378;28;20034;-69
2023/06/28 07:51:06;;;;;;;0.00;0.00;;;17.10;84.00;;;;;;5027906;28;20053;-69
2023/06/28 07:53:32;;;;;;;0.00;0.00;;;17.00;84.20;;;;;;5028267;28;20065;-68
2023/06/28 07:55:57;;;;;;;0.20;0.20;;;17.00;84.30;;;;;;5028036;28;20464;-69
2023/06/28 07:58:23;;;;;;;0.00;0.00;;;17.00;84.40;;;;;;5027681;28;20048;-69
2023/06/28 08:00:48;;;;;;;0.00;0.00;;;17.00;84.80;;;;;;5019418;28;20046;-68
2023/06/28 08:03:14;;;;;;;0.00;0.00;;;17.00;84.60;;;;;;5021017;28;20140;-69
2023/06/28 08:05:39;;;;;;;0.00;0.00;;;17.00;84.30;;;;;;5027850;28;20581;-70
2023/06/28 08:08:06;;;;;;;0.00;0.00;;;17.10;84.60;;;;;;5025530;28;20053;-69
2023/06/28 08:10:31;;;;;;;0.00;0.00;;;17.00;84.40;;;;;;5022726;28;20049;-70
2023/06/28 08:12:57;;;;;;;0.00;0.00;;;17.00;84.70;;;;;;5027341;28;20038;-67
2023/06/28 08:15:23;;;;;;;0.00;0.00;;;17.10;84.60;;;;;;5021030;28;20057;-65
2023/06/28 08:17:48;;;;;;;0.00;0.00;;;17.10;83.80;;;;;;5019345;28;20595;-65
2023/06/28 08:20:14;;;;;;;0.13;0.13;;;17.50;83.60;;;;;;5022556;28;20465;-66
2023/06/28 08:22:40;;;;;;;0.00;0.00;;;17.80;83.10;;;;;;5019603;28;20042;-66
2023/06/28 08:25:05;;;;;;;0.00;0.00;;;18.10;82.70;;;;;;5025933;28;20049;-65
2023/06/28 08:27:31;;;;;;;0.00;0.00;;;18.20;82.00;;;;;;5026304;28;20048;-66
2023/06/28 08:29:58;;;;;;;0.08;0.08;;;18.50;81.70;;;;;;5027467;28;20053;-65
2023/06/28 08:32:23;;;;;;;0.00;0.00;;;18.60;81.30;;;;;;5027059;28;20046;-65
2023/06/28 08:34:49;;;;;;;0.00;0.00;;;18.60;80.80;;;;;;5025904;28;20057;-66
2023/06/28 08:37:16;;;;;;;0.00;0.00;;;18.80;80.60;;;;;;5013152;28;20399;-66
2023/06/28 08:39:41;;;;;;;0.00;0.00;;;18.90;80.30;;;;;;5027144;28;20072;-67
2023/06/28 08:42:07;;;;;;;0.00;0.00;;;19.00;80.30;;;;;;5028221;28;20410;-69
2023/06/28 08:44:33;;;;;;;0.00;0.00;;;19.10;80.30;;;;;;5009799;28;20045;-74
2023/06/28 08:47:00;;;;;;;0.00;0.00;;;19.10;80.20;;;;;;5016137;28;20034;-68
2023/06/28 08:49:27;;;;;;;0.00;0.00;;;19.00;80.20;;;;;;5027010;28;20398;-68
2023/06/28 08:51:57;;;;;;;0.00;0.00;;;19.00;80.00;;;;;;5028126;28;20037;-69
2023/06/28 08:54:27;;;;;;;0.00;0.00;;;18.90;80.00;;;;;;5026961;28;20451;-68
2023/06/28 08:56:56;;;;;;;0.00;0.00;;;19.00;80.20;;;;;;5015465;28;20056;-67
2023/06/28 08:59:22;;;;;;;0.00;0.00;;;19.00;80.10;;;;;;5008371;28;20085;-67
2023/06/28 09:01:48;;;;;;;0.00;0.00;;;19.00;80.00;;;;;;5021765;28;20068;-68
2023/06/28 09:04:13;;;;;;;0.00;0.00;;;19.00;79.90;;;;;;5027281;28;20071;-68
2023/06/28 09:06:39;;;;;;;0.00;0.00;;;19.00;80.20;;;;;;5024711;28;20589;-68
2023/06/28 09:09:05;;;;;;;0.00;0.00;;;19.00;80.10;;;;;;5027716;28;20136;-68
2023/06/28 09:11:31;;;;;;;0.00;0.00;;;19.00;80.10;;;;;;5027720;28;20141;-67
2023/06/28 09:13:57;;;;;;;0.00;0.00;;;19.10;80.10;;;;;;5027120;28;20041;-67
2023/06/28 09:16:23;;;;;;;0.00;0.00;;;19.10;80.10;;;;;;5027468;28;20056;-67
2023/06/28 09:18:49;;;;;;;0.00;0.00;;;19.10;80.10;;;;;;5031205;28;20046;-67
2023/06/28 09:21:25;;;;;;;0.00;0.00;;;19.20;80.10;;;;;;5030106;28;20670;-67
2023/06/28 09:23:50;;;;;;;0.00;0.00;;;19.20;80.20;;;;;;5022279;28;20034;-67
2023/06/28 09:26:16;;;;;;;0.00;0.00;;;19.20;80.30;;;;;;5030366;28;20126;-67
2023/06/28 09:28:42;;;;;;;0.00;0.00;;;19.30;80.00;;;;;;5022741;28;20048;-68
2023/06/28 09:31:08;;;;;;;0.00;0.00;;;19.20;80.70;;;;;;5021931;28;20053;-67
2023/06/28 09:33:34;;;;;;;0.00;0.00;;;19.30;80.50;;;;;;5028788;28;20034;-67
2023/06/28 09:36:02;;;;;;;0.00;0.00;;;19.30;80.30;;;;;;5028530;28;20099;-67
2023/06/28 09:38:28;;;;;;;0.00;0.00;;;19.40;80.30;;;;;;5029116;28;20072;-67
2023/06/28 09:40:57;;;;;;;0.00;0.00;;;19.30;80.30;;;;;;5031389;28;20049;-67
2023/06/28 09:43:23;;;;;;;0.05;0.05;;;19.20;80.30;;;;;;5031387;28;20037;-67
2023/06/28 09:45:49;;;;;;;0.00;0.00;;;19.30;80.50;;;;;;5029978;28;20070;-66
2023/06/28 09:48:15;;;;;;;0.00;0.00;;;19.30;80.70;;;;;;5031540;28;20047;-67
2023/06/28 09:50:44;;;;;;;0.00;0.00;;;19.30;80.60;;;;;;5030030;28;20057;-66
2023/06/28 09:53:15;;;;;;;0.00;0.00;;;19.30;80.50;;;;;;5029031;28;20433;-67
2023/06/28 09:55:43;;;;;;;0.00;0.00;;;19.30;80.70;;;;;;5026813;28;20045;-67
2023/06/28 09:58:14;;;;;;;0.00;0.00;;;19.40;80.80;;;;;;5027372;28;20063;-67
2023/06/28 10:00:45;;;;;;;0.00;0.00;;;19.30;81.20;;;;;;5023095;28;20048;-68
2023/06/28 10:03:12;;;;;;;0.00;0.00;;;19.20;81.70;;;;;;5024619;28;20037;-68
2023/06/28 10:05:39;;;;;;;1.65;0.80;;;19.20;81.60;;;;;;5026529;28;20093;-68
2023/06/28 10:08:10;;;;;;;0.00;0.00;;;19.20;82.20;;;;;;5029229;28;20080;-68
2023/06/28 10:10:37;;;;;;;0.00;0.00;;;19.10;82.00;;;;;;5028752;28;20111;-67
2023/06/28 10:13:06;;;;;;;0.00;0.00;;;19.10;82.20;;;;;;5028415;28;20552;-67
2023/06/28 10:15:40;;;;;;;0.00;0.00;;;19.10;82.50;;;;;;5028022;28;20053;-70
2023/06/28 10:18:06;;;;;;;0.00;0.00;;;19.10;82.60;;;;;;5024519;28;20056;-70
2023/06/28 10:20:31;;;;;;;0.00;0.00;;;19.20;82.60;;;;;;5028327;28;20050;-70
2023/06/28 10:22:59;;;;;;;0.10;0.10;;;19.30;82.70;;;;;;5028184;28;20052;-71
2023/06/28 10:25:26;;;;;;;0.00;0.00;;;19.40;82.70;;;;;;5020694;28;20053;-71
2023/06/28 10:27:52;;;;;;;0.00;0.00;;;19.50;82.60;;;;;;5027739;28;20393;-71
2023/06/28 10:30:20;;;;;;;0.00;0.00;;;19.60;82.50;;;;;;5028053;28;20115;-71
2023/06/28 10:32:46;;;;;;;0.00;0.00;;;19.60;82.40;;;;;;5029349;28;20060;-70
2023/06/28 10:35:12;;;;;;;0.05;0.05;;;19.60;82.20;;;;;;5026894;28;20053;-70
2023/06/28 10:37:38;;;;;;;0.00;0.00;;;19.70;82.30;;;;;;5029030;28;20057;-71
2023/06/28 10:40:05;;;;;;;0.00;0.00;;;19.80;82.10;;;;;;5029418;28;20088;-68
2023/06/28 10:42:39;;;;;;;0.00;0.00;;;19.60;81.90;;;;;;5027909;28;20042;-68
2023/06/28 10:45:05;;;;;;;0.00;0.00;;;19.60;81.60;;;;;;5028710;28;20060;-67
2023/06/28 10:47:34;;;;;;;0.00;0.00;;;19.50;81.80;;;;;;5031325;28;20049;-67
2023/06/28 10:50:10;;;;;;;0.00;0.00;;;19.40;82.20;;;;;;5028724;28;20676;-68
2023/06/28 10:52:45;;;;;;;0.03;0.03;;;19.40;82.30;;;;;;5022863;28;20050;-70
2023/06/28 10:55:11;;;;;;;0.00;0.00;;;19.30;82.20;;;;;;5024591;28;20045;-67
2023/06/28 10:57:40;;;;;;;0.00;0.00;;;19.30;82.70;;;;;;5028887;28;20050;-70
2023/06/28 11:00:11;;;;;;;0.00;0.00;;;19.30;82.50;;;;;;5021775;28;20128;-67
2023/06/28 11:03:04;;;;;;;0.00;0.00;;;19.30;82.80;;;;;;5022965;28;20132;-77
2023/06/28 11:05:44;;;;;;;0.00;0.00;;;19.30;83.20;;;;;;5021413;28;20072;-67
2023/06/28 11:08:14;;;;;;;0.00;0.00;;;19.20;83.30;;;;;;5017792;28;20071;-67
2023/06/28 11:10:54;;;;;;;0.00;0.00;;;19.20;83.20;;;;;;5027126;28;20064;-67
2023/06/28 11:13:50;;;;;;;0.00;0.00;;;19.20;83.20;;;;;;5028962;28;20537;-67
2023/06/28 11:16:23;;;;;;;0.00;0.00;;;19.20;82.80;;;;;;5027604;28;20056;-67
2023/06/28 11:18:51;;;;;;;0.00;0.00;;;19.10;82.70;;;;;;5025505;28;20045;-67
2023/06/28 11:21:24;;;;;;;0.00;0.00;;;19.10;82.80;;;;;;5018393;28;20037;-67
2023/06/28 11:23:54;;;;;;;0.00;0.00;;;19.10;83.70;;;;;;5029584;28;20049;-67
2023/06/28 11:26:32;;;;;;;0.15;0.15;;;19.20;83.80;;;;;;5028959;28;20049;-66
2023/06/28 11:28:57;;;;;;;0.10;0.10;;;19.10;83.30;;;;;;5013586;28;20044;-68
2023/06/28 11:31:25;;;;;;;0.00;0.00;;;19.10;82.90;;;;;;5016545;28;20883;-67
2023/06/28 11:33:54;;;;;;;0.00;0.00;;;19.20;83.00;;;;;;5028336;28;20117;-67
2023/06/28 11:36:24;;;;;;;0.00;0.00;;;19.20;83.10;;;;;;5027340;28;20046;-67
2023/06/28 11:38:50;;;;;;;0.00;0.00;;;19.30;83.20;;;;;;5025056;28;20046;-67
2023/06/28 11:41:16;;;;;;;0.00;0.00;;;19.30;82.70;;;;;;5029122;28;20125;-67
2023/06/28 11:43:47;;;;;;;0.00;0.00;;;19.40;82.90;;;;;;5016296;28;20046;-66
2023/06/28 11:46:20;;;;;;;0.10;0.10;;;19.40;83.10;;;;;;5019722;28;20049;-66
2023/06/28 11:48:48;;;;;;;0.00;0.00;;;19.40;83.10;;;;;;5028278;28;20081;-67
2023/06/28 11:51:14;;;;;;;0.00;0.00;;;19.40;83.10;;;;;;5029208;28;20045;-67
2023/06/28 11:53:40;;;;;;;0.00;0.00;;;19.40;83.30;;;;;;5028620;28;20088;-68
2023/06/28 11:56:06;;;;;;;0.00;0.00;;;19.40;83.20;;;;;;5028862;28;20046;-67
2023/06/28 11:58:36;;;;;;;0.00;0.00;;;19.50;83.50;;;;;;5028165;28;20080;-67
2023/06/28 12:01:04;;;;;;;0.00;0.00;;;19.50;83.00;;;;;;5027501;28;20041;-67
2023/06/28 12:03:39;;;;;;;0.00;0.00;;;19.40;83.00;;;;;;5019116;28;20048;-68
2023/06/28 12:06:07;;;;;;;0.00;0.00;;;19.40;83.40;;;;;;5021417;28;20057;-66
2023/06/28 12:08:34;;;;;;;0.00;0.00;;;19.40;84.10;;;;;;5027375;28;20058;-66
2023/06/28 12:11:01;;;;;;;0.00;0.00;;;19.60;84.00;;;;;;5029252;28;20077;-66
2023/06/28 12:13:27;;;;;;;0.00;0.00;;;19.70;84.00;;;;;;5028484;28;20046;-66
2023/06/28 12:15:54;;;;;;;0.10;0.10;;;19.80;84.20;;;;;;5023702;28;20049;-64
2023/06/28 12:18:20;;;;;;;0.00;0.00;;;19.80;83.60;;;;;;5028593;28;20040;-64
2023/06/28 12:20:45;;;;;;;0.00;0.00;;;19.80;83.70;;;;;;5019342;28;20050;-65
2023/06/28 12:23:12;;;;;;;0.00;0.00;;;19.80;83.50;;;;;;5022846;28;20344;-64
2023/06/28 12:25:43;;;;;;;0.00;0.00;;;19.90;83.10;;;;;;5028481;28;20413;-64
2023/06/28 12:28:12;;;;;;;0.00;0.00;;;19.90;83.40;;;;;;5023418;28;20033;-64
2023/06/28 12:30:38;;;;;;;0.00;0.00;;;19.90;83.50;;;;;;5027851;28;20049;-65
2023/06/28 12:33:08;;;;;;;0.20;0.20;;;19.90;83.30;;;;;;5020707;28;20402;-64
2023/06/28 12:35:34;;;;;;;0.13;0.10;;;19.90;83.50;;;;;;5026567;28;20045;-64
2023/06/28 12:38:02;;;;;;;0.00;0.00;;;19.90;83.30;;;;;;5027066;28;20069;-64
2023/06/28 12:40:29;;;;;;;0.00;0.00;;;20.00;83.10;;;;;;5010713;28;20391;-64
2023/06/28 12:43:10;;;;;;;0.00;0.00;;;19.90;83.00;;;;;;5027500;28;20429;-64
2023/06/28 12:46:03;;;;;;;0.00;0.00;;;19.90;83.10;;;;;;5026318;28;20486;-64